This London Heathrow Airport weather forecast is generated by the Met Office Weather Widget

AirNav RadarBox - Metar Weather
  London Heathrow Metar Weather
 

METAR = EGLL 261050Z 33006KT 280V020 CAVOK 26/13 Q1017 NOSIG

STATION........ EGLL
OBSERVED....... Sat Jul 26, 11:50 BST
NOW............ Sat Jul 26, 12:09 BST
AGE............ 19 min ago
WIND........... NNW at 7 mph
VISIBILITY..... greater than 7 miles
CLOUDS......... clear skies
TEMP........... 79°F (26°C)
DEWPT.......... 55°F (13°C)
HUMIDITY....... 45%
BAROMETER...... 1017 hPa (30.03 in Hg)

Sat Jul 26 2014, sunrise time : 04:22
Sat Jul 26 2014, sunset time : 19:54